sensor_id;sensor_type;location;lat;lon;timestamp;P1;durP1;ratioP1;P2;durP2;ratioP2
55684;SDS011;41883;49.544;8.646;2022-07-21T00:00:26;8.70;;;7.30;;
55684;SDS011;41883;49.544;8.646;2022-07-21T00:02:53;10.90;;;8.93;;
55684;SDS011;41883;49.544;8.646;2022-07-21T00:05:19;12.10;;;8.90;;
55684;SDS011;41883;49.544;8.646;2022-07-21T00:07:45;10.32;;;8.93;;
55684;SDS011;41883;49.544;8.646;2022-07-21T00:10:11;10.55;;;9.27;;
55684;SDS011;41883;49.544;8.646;2022-07-21T00:12:37;12.05;;;9.15;;
55684;SDS011;41883;49.544;8.646;2022-07-21T00:17:28;13.10;;;9.40;;
55684;SDS011;41883;49.544;8.646;2022-07-21T00:19:54;11.27;;;10.05;;
55684;SDS011;41883;49.544;8.646;2022-07-21T00:24:44;11.00;;;9.80;;
55684;SDS011;41883;49.544;8.646;2022-07-21T00:27:09;12.07;;;10.40;;
55684;SDS011;41883;49.544;8.646;2022-07-21T00:29:35;11.15;;;9.95;;
55684;SDS011;41883;49.544;8.646;2022-07-21T00:32:00;13.30;;;11.10;;
55684;SDS011;41883;49.544;8.646;2022-07-21T00:34:25;13.07;;;11.73;;
55684;SDS011;41883;49.544;8.646;2022-07-21T00:36:51;15.05;;;11.38;;
55684;SDS011;41883;49.544;8.646;2022-07-21T00:39:16;14.02;;;11.65;;
55684;SDS011;41883;49.544;8.646;2022-07-21T00:41:41;13.55;;;11.50;;
55684;SDS011;41883;49.544;8.646;2022-07-21T00:44:18;14.40;;;11.25;;
55684;SDS011;41883;49.544;8.646;2022-07-21T00:46:44;13.63;;;12.05;;
55684;SDS011;41883;49.544;8.646;2022-07-21T00:49:09;13.90;;;11.85;;
55684;SDS011;41883;49.544;8.646;2022-07-21T00:51:35;12.75;;;10.80;;
55684;SDS011;41883;49.544;8.646;2022-07-21T00:54:00;12.75;;;11.07;;
55684;SDS011;41883;49.544;8.646;2022-07-21T00:56:25;15.50;;;11.63;;
55684;SDS011;41883;49.544;8.646;2022-07-21T00:58:51;14.85;;;12.65;;
55684;SDS011;41883;49.544;8.646;2022-07-21T01:01:16;13.75;;;11.68;;
55684;SDS011;41883;49.544;8.646;2022-07-21T01:03:41;13.27;;;11.50;;
55684;SDS011;41883;49.544;8.646;2022-07-21T01:06:07;15.90;;;12.27;;
55684;SDS011;41883;49.544;8.646;2022-07-21T01:08:32;14.80;;;12.32;;
55684;SDS011;41883;49.544;8.646;2022-07-21T01:10:57;13.57;;;12.15;;
55684;SDS011;41883;49.544;8.646;2022-07-21T01:13:23;14.77;;;11.90;;
55684;SDS011;41883;49.544;8.646;2022-07-21T01:15:48;15.77;;;11.60;;
55684;SDS011;41883;49.544;8.646;2022-07-21T01:18:14;14.48;;;12.00;;
55684;SDS011;41883;49.544;8.646;2022-07-21T01:20:39;13.05;;;11.65;;
55684;SDS011;41883;49.544;8.646;2022-07-21T01:23:09;13.02;;;11.60;;
55684;SDS011;41883;49.544;8.646;2022-07-21T01:25:35;13.70;;;11.20;;
55684;SDS011;41883;49.544;8.646;2022-07-21T01:28:00;13.88;;;10.75;;
55684;SDS011;41883;49.544;8.646;2022-07-21T01:30:25;11.45;;;10.32;;
55684;SDS011;41883;49.544;8.646;2022-07-21T01:32:51;12.02;;;10.38;;
55684;SDS011;41883;49.544;8.646;2022-07-21T01:35:17;12.15;;;10.85;;
55684;SDS011;41883;49.544;8.646;2022-07-21T01:37:43;12.75;;;11.10;;
55684;SDS011;41883;49.544;8.646;2022-07-21T01:40:10;13.63;;;11.23;;
55684;SDS011;41883;49.544;8.646;2022-07-21T01:42:55;16.83;;;11.55;;
55684;SDS011;41883;49.544;8.646;2022-07-21T01:45:21;11.98;;;10.75;;
55684;SDS011;41883;49.544;8.646;2022-07-21T01:47:47;14.77;;;12.00;;
55684;SDS011;41883;49.544;8.646;2022-07-21T01:50:12;13.98;;;12.20;;
55684;SDS011;41883;49.544;8.646;2022-07-21T01:52:38;13.85;;;11.63;;
55684;SDS011;41883;49.544;8.646;2022-07-21T01:55:03;13.10;;;11.38;;
55684;SDS011;41883;49.544;8.646;2022-07-21T01:57:29;15.35;;;12.77;;
55684;SDS011;41883;49.544;8.646;2022-07-21T01:59:54;13.27;;;11.75;;
55684;SDS011;41883;49.544;8.646;2022-07-21T02:02:20;14.00;;;11.95;;
55684;SDS011;41883;49.544;8.646;2022-07-21T02:04:47;14.40;;;12.57;;
55684;SDS011;41883;49.544;8.646;2022-07-21T02:07:13;12.90;;;11.60;;
55684;SDS011;41883;49.544;8.646;2022-07-21T02:09:39;17.23;;;12.60;;
55684;SDS011;41883;49.544;8.646;2022-07-21T02:12:04;16.80;;;12.75;;
55684;SDS011;41883;49.544;8.646;2022-07-21T02:14:30;15.32;;;12.23;;
55684;SDS011;41883;49.544;8.646;2022-07-21T02:16:55;16.35;;;14.00;;
55684;SDS011;41883;49.544;8.646;2022-07-21T02:19:20;16.27;;;13.73;;
55684;SDS011;41883;49.544;8.646;2022-07-21T02:21:46;15.15;;;13.23;;
55684;SDS011;41883;49.544;8.646;2022-07-21T02:24:11;16.00;;;13.20;;
55684;SDS011;41883;49.544;8.646;2022-07-21T02:26:36;17.40;;;14.05;;
55684;SDS011;41883;49.544;8.646;2022-07-21T02:29:01;15.68;;;13.43;;
55684;SDS011;41883;49.544;8.646;2022-07-21T02:31:27;17.77;;;13.88;;
55684;SDS011;41883;49.544;8.646;2022-07-21T02:33:53;17.73;;;13.63;;
55684;SDS011;41883;49.544;8.646;2022-07-21T02:36:18;15.73;;;13.83;;
55684;SDS011;41883;49.544;8.646;2022-07-21T02:38:43;14.40;;;12.15;;
55684;SDS011;41883;49.544;8.646;2022-07-21T02:41:09;16.13;;;13.37;;
55684;SDS011;41883;49.544;8.646;2022-07-21T02:43:34;16.20;;;12.40;;
55684;SDS011;41883;49.544;8.646;2022-07-21T02:45:59;14.18;;;12.68;;
55684;SDS011;41883;49.544;8.646;2022-07-21T02:48:25;12.35;;;10.68;;
55684;SDS011;41883;49.544;8.646;2022-07-21T02:50:50;13.27;;;11.55;;
55684;SDS011;41883;49.544;8.646;2022-07-21T02:53:16;15.53;;;13.50;;
55684;SDS011;41883;49.544;8.646;2022-07-21T02:55:44;16.73;;;13.77;;
55684;SDS011;41883;49.544;8.646;2022-07-21T02:58:12;17.38;;;14.63;;
55684;SDS011;41883;49.544;8.646;2022-07-21T03:00:41;15.32;;;13.73;;
55684;SDS011;41883;49.544;8.646;2022-07-21T03:03:09;15.48;;;13.60;;
55684;SDS011;41883;49.544;8.646;2022-07-21T03:05:36;15.23;;;13.73;;
55684;SDS011;41883;49.544;8.646;2022-07-21T03:08:02;17.33;;;14.68;;
55684;SDS011;41883;49.544;8.646;2022-07-21T03:10:28;16.30;;;13.43;;
55684;SDS011;41883;49.544;8.646;2022-07-21T03:12:53;16.25;;;13.68;;
55684;SDS011;41883;49.544;8.646;2022-07-21T03:15:19;16.45;;;14.45;;
55684;SDS011;41883;49.544;8.646;2022-07-21T03:17:45;17.75;;;14.73;;
55684;SDS011;41883;49.544;8.646;2022-07-21T03:20:10;14.93;;;12.73;;
55684;SDS011;41883;49.544;8.646;2022-07-21T03:22:36;12.52;;;11.23;;
55684;SDS011;41883;49.544;8.646;2022-07-21T03:25:01;15.93;;;14.23;;
55684;SDS011;41883;49.544;8.646;2022-07-21T03:27:27;15.93;;;14.18;;
55684;SDS011;41883;49.544;8.646;2022-07-21T03:29:53;15.07;;;13.48;;
55684;SDS011;41883;49.544;8.646;2022-07-21T03:32:18;14.33;;;12.37;;
55684;SDS011;41883;49.544;8.646;2022-07-21T03:34:43;15.20;;;13.60;;
55684;SDS011;41883;49.544;8.646;2022-07-21T03:37:10;16.33;;;13.52;;
55684;SDS011;41883;49.544;8.646;2022-07-21T03:39:36;15.68;;;13.13;;
55684;SDS011;41883;49.544;8.646;2022-07-21T03:42:01;16.67;;;13.47;;
55684;SDS011;41883;49.544;8.646;2022-07-21T03:44:26;17.02;;;13.48;;
55684;SDS011;41883;49.544;8.646;2022-07-21T03:46:52;15.38;;;13.68;;
55684;SDS011;41883;49.544;8.646;2022-07-21T03:49:17;14.40;;;12.90;;
55684;SDS011;41883;49.544;8.646;2022-07-21T03:51:42;13.85;;;12.43;;
55684;SDS011;41883;49.544;8.646;2022-07-21T03:54:08;14.10;;;12.60;;
55684;SDS011;41883;49.544;8.646;2022-07-21T03:56:33;13.17;;;11.80;;
55684;SDS011;41883;49.544;8.646;2022-07-21T03:58:58;14.95;;;13.23;;
55684;SDS011;41883;49.544;8.646;2022-07-21T04:01:23;17.97;;;14.70;;
55684;SDS011;41883;49.544;8.646;2022-07-21T04:03:49;18.52;;;14.27;;
55684;SDS011;41883;49.544;8.646;2022-07-21T04:06:14;15.10;;;12.82;;
55684;SDS011;41883;49.544;8.646;2022-07-21T04:08:39;17.40;;;13.77;;
55684;SDS011;41883;49.544;8.646;2022-07-21T04:11:05;15.07;;;13.40;;
55684;SDS011;41883;49.544;8.646;2022-07-21T04:13:30;15.45;;;13.75;;
55684;SDS011;41883;49.544;8.646;2022-07-21T04:15:56;14.35;;;12.90;;
55684;SDS011;41883;49.544;8.646;2022-07-21T04:18:21;15.38;;;13.68;;
55684;SDS011;41883;49.544;8.646;2022-07-21T04:20:47;15.88;;;13.00;;
55684;SDS011;41883;49.544;8.646;2022-07-21T04:23:12;13.65;;;11.65;;
55684;SDS011;41883;49.544;8.646;2022-07-21T04:25:37;15.43;;;13.48;;
55684;SDS011;41883;49.544;8.646;2022-07-21T04:28:04;12.32;;;10.90;;
55684;SDS011;41883;49.544;8.646;2022-07-21T04:30:30;10.30;;;9.30;;
55684;SDS011;41883;49.544;8.646;2022-07-21T04:32:55;12.00;;;10.73;;
55684;SDS011;41883;49.544;8.646;2022-07-21T04:35:21;15.90;;;10.82;;
55684;SDS011;41883;49.544;8.646;2022-07-21T04:37:46;9.80;;;8.80;;
55684;SDS011;41883;49.544;8.646;2022-07-21T04:40:12;8.55;;;7.65;;
55684;SDS011;41883;49.544;8.646;2022-07-21T04:42:39;9.82;;;8.10;;
55684;SDS011;41883;49.544;8.646;2022-07-21T04:45:05;8.82;;;7.15;;
55684;SDS011;41883;49.544;8.646;2022-07-21T04:47:32;8.52;;;6.50;;
55684;SDS011;41883;49.544;8.646;2022-07-21T04:49:57;6.85;;;5.80;;
55684;SDS011;41883;49.544;8.646;2022-07-21T04:52:23;7.50;;;6.07;;
55684;SDS011;41883;49.544;8.646;2022-07-21T04:54:48;6.75;;;6.05;;
55684;SDS011;41883;49.544;8.646;2022-07-21T04:57:13;6.70;;;5.85;;
55684;SDS011;41883;49.544;8.646;2022-07-21T04:59:39;7.68;;;6.85;;
55684;SDS011;41883;49.544;8.646;2022-07-21T05:02:04;8.23;;;7.13;;
55684;SDS011;41883;49.544;8.646;2022-07-21T05:04:30;8.35;;;7.35;;
55684;SDS011;41883;49.544;8.646;2022-07-21T05:06:55;7.60;;;6.80;;
55684;SDS011;41883;49.544;8.646;2022-07-21T05:09:21;9.35;;;7.32;;
55684;SDS011;41883;49.544;8.646;2022-07-21T05:11:46;9.80;;;7.65;;
55684;SDS011;41883;49.544;8.646;2022-07-21T05:14:12;7.32;;;6.57;;
55684;SDS011;41883;49.544;8.646;2022-07-21T05:16:37;7.43;;;6.45;;
55684;SDS011;41883;49.544;8.646;2022-07-21T05:19:03;7.43;;;6.43;;
55684;SDS011;41883;49.544;8.646;2022-07-21T05:21:28;8.75;;;7.05;;
55684;SDS011;41883;49.544;8.646;2022-07-21T05:23:53;8.93;;;8.02;;
55684;SDS011;41883;49.544;8.646;2022-07-21T05:26:19;10.05;;;8.40;;
55684;SDS011;41883;49.544;8.646;2022-07-21T05:28:44;8.15;;;7.28;;
55684;SDS011;41883;49.544;8.646;2022-07-21T05:31:10;9.43;;;7.22;;
55684;SDS011;41883;49.544;8.646;2022-07-21T05:33:35;8.30;;;6.68;;
55684;SDS011;41883;49.544;8.646;2022-07-21T05:36:01;9.18;;;6.22;;
55684;SDS011;41883;49.544;8.646;2022-07-21T05:38:27;9.63;;;8.10;;
55684;SDS011;41883;49.544;8.646;2022-07-21T05:40:53;9.55;;;8.05;;
55684;SDS011;41883;49.544;8.646;2022-07-21T05:43:18;13.02;;;10.82;;
55684;SDS011;41883;49.544;8.646;2022-07-21T05:45:43;13.38;;;10.85;;
55684;SDS011;41883;49.544;8.646;2022-07-21T05:48:08;12.65;;;10.35;;
55684;SDS011;41883;49.544;8.646;2022-07-21T05:50:34;12.00;;;10.52;;
55684;SDS011;41883;49.544;8.646;2022-07-21T05:52:59;11.55;;;9.93;;
55684;SDS011;41883;49.544;8.646;2022-07-21T05:55:24;12.30;;;10.20;;
55684;SDS011;41883;49.544;8.646;2022-07-21T05:57:49;9.70;;;8.65;;
55684;SDS011;41883;49.544;8.646;2022-07-21T06:00:15;10.63;;;8.05;;
55684;SDS011;41883;49.544;8.646;2022-07-21T06:02:42;11.32;;;8.32;;
55684;SDS011;41883;49.544;8.646;2022-07-21T06:05:08;9.55;;;8.02;;
55684;SDS011;41883;49.544;8.646;2022-07-21T06:07:35;9.00;;;7.95;;
55684;SDS011;41883;49.544;8.646;2022-07-21T06:10:00;10.00;;;8.47;;
55684;SDS011;41883;49.544;8.646;2022-07-21T06:12:26;8.65;;;7.75;;
55684;SDS011;41883;49.544;8.646;2022-07-21T06:14:52;7.90;;;7.00;;
55684;SDS011;41883;49.544;8.646;2022-07-21T06:17:17;8.80;;;7.13;;
55684;SDS011;41883;49.544;8.646;2022-07-21T06:19:42;8.30;;;6.77;;
55684;SDS011;41883;49.544;8.646;2022-07-21T06:22:07;9.33;;;6.70;;
55684;SDS011;41883;49.544;8.646;2022-07-21T06:24:33;9.13;;;7.68;;
55684;SDS011;41883;49.544;8.646;2022-07-21T06:26:58;7.95;;;6.28;;
55684;SDS011;41883;49.544;8.646;2022-07-21T06:29:24;6.85;;;6.15;;
55684;SDS011;41883;49.544;8.646;2022-07-21T06:31:49;6.65;;;5.72;;
55684;SDS011;41883;49.544;8.646;2022-07-21T06:34:15;7.35;;;6.07;;
55684;SDS011;41883;49.544;8.646;2022-07-21T06:36:40;5.95;;;5.28;;
55684;SDS011;41883;49.544;8.646;2022-07-21T06:39:06;8.45;;;5.55;;
55684;SDS011;41883;49.544;8.646;2022-07-21T06:41:31;6.38;;;5.75;;
55684;SDS011;41883;49.544;8.646;2022-07-21T06:43:56;6.90;;;5.55;;
55684;SDS011;41883;49.544;8.646;2022-07-21T06:46:22;7.38;;;5.55;;
55684;SDS011;41883;49.544;8.646;2022-07-21T06:48:47;6.75;;;5.30;;
55684;SDS011;41883;49.544;8.646;2022-07-21T06:51:12;6.43;;;5.57;;
55684;SDS011;41883;49.544;8.646;2022-07-21T06:53:38;6.43;;;4.93;;
55684;SDS011;41883;49.544;8.646;2022-07-21T06:56:03;6.45;;;5.15;;
55684;SDS011;41883;49.544;8.646;2022-07-21T06:58:28;6.80;;;5.50;;
55684;SDS011;41883;49.544;8.646;2022-07-21T07:00:54;6.63;;;5.40;;
55684;SDS011;41883;49.544;8.646;2022-07-21T07:03:19;6.40;;;5.70;;
55684;SDS011;41883;49.544;8.646;2022-07-21T07:05:45;5.75;;;4.65;;
55684;SDS011;41883;49.544;8.646;2022-07-21T07:08:12;6.45;;;5.22;;
55684;SDS011;41883;49.544;8.646;2022-07-21T07:10:41;7.10;;;5.82;;
55684;SDS011;41883;49.544;8.646;2022-07-21T07:13:07;7.32;;;5.78;;
55684;SDS011;41883;49.544;8.646;2022-07-21T07:15:32;7.53;;;5.30;;
55684;SDS011;41883;49.544;8.646;2022-07-21T07:17:58;7.03;;;5.80;;
55684;SDS011;41883;49.544;8.646;2022-07-21T07:20:24;9.07;;;6.03;;
55684;SDS011;41883;49.544;8.646;2022-07-21T07:22:49;7.47;;;5.60;;
55684;SDS011;41883;49.544;8.646;2022-07-21T07:25:15;7.95;;;5.25;;
55684;SDS011;41883;49.544;8.646;2022-07-21T07:27:42;5.70;;;5.03;;
55684;SDS011;41883;49.544;8.646;2022-07-21T07:30:09;5.57;;;4.38;;
55684;SDS011;41883;49.544;8.646;2022-07-21T07:32:35;5.90;;;4.50;;
55684;SDS011;41883;49.544;8.646;2022-07-21T07:35:00;5.90;;;4.50;;
55684;SDS011;41883;49.544;8.646;2022-07-21T07:37:25;6.40;;;4.85;;
55684;SDS011;41883;49.544;8.646;2022-07-21T07:39:50;6.65;;;4.97;;
55684;SDS011;41883;49.544;8.646;2022-07-21T07:42:16;6.47;;;5.37;;
55684;SDS011;41883;49.544;8.646;2022-07-21T07:44:41;6.80;;;5.28;;
55684;SDS011;41883;49.544;8.646;2022-07-21T07:47:06;6.20;;;4.93;;
55684;SDS011;41883;49.544;8.646;2022-07-21T07:49:32;8.93;;;4.80;;
55684;SDS011;41883;49.544;8.646;2022-07-21T07:51:57;5.65;;;4.40;;
55684;SDS011;41883;49.544;8.646;2022-07-21T07:54:23;5.93;;;5.07;;
55684;SDS011;41883;49.544;8.646;2022-07-21T07:56:49;5.13;;;4.53;;
55684;SDS011;41883;49.544;8.646;2022-07-21T07:59:14;4.65;;;4.03;;
55684;SDS011;41883;49.544;8.646;2022-07-21T08:01:40;6.90;;;4.57;;
55684;SDS011;41883;49.544;8.646;2022-07-21T08:04:05;6.57;;;4.43;;
55684;SDS011;41883;49.544;8.646;2022-07-21T08:06:31;6.25;;;4.30;;
55684;SDS011;41883;49.544;8.646;2022-07-21T08:08:56;7.05;;;4.60;;
55684;SDS011;41883;49.544;8.646;2022-07-21T08:11:21;8.13;;;5.10;;
55684;SDS011;41883;49.544;8.646;2022-07-21T08:13:47;7.25;;;4.88;;
55684;SDS011;41883;49.544;8.646;2022-07-21T08:16:12;6.57;;;4.90;;
55684;SDS011;41883;49.544;8.646;2022-07-21T08:18:40;6.00;;;4.40;;
55684;SDS011;41883;49.544;8.646;2022-07-21T08:21:08;6.40;;;4.40;;
55684;SDS011;41883;49.544;8.646;2022-07-21T08:23:34;5.60;;;4.32;;
55684;SDS011;41883;49.544;8.646;2022-07-21T08:26:00;5.40;;;3.78;;
55684;SDS011;41883;49.544;8.646;2022-07-21T08:28:25;5.85;;;4.53;;
55684;SDS011;41883;49.544;8.646;2022-07-21T08:30:51;5.78;;;4.40;;
55684;SDS011;41883;49.544;8.646;2022-07-21T08:33:16;5.97;;;4.38;;
55684;SDS011;41883;49.544;8.646;2022-07-21T08:35:42;5.93;;;4.95;;
55684;SDS011;41883;49.544;8.646;2022-07-21T08:38:08;5.82;;;4.68;;
55684;SDS011;41883;49.544;8.646;2022-07-21T08:40:37;5.68;;;4.80;;
55684;SDS011;41883;49.544;8.646;2022-07-21T08:43:05;5.00;;;4.00;;
55684;SDS011;41883;49.544;8.646;2022-07-21T08:45:33;6.47;;;4.45;;
55684;SDS011;41883;49.544;8.646;2022-07-21T08:48:00;7.78;;;5.00;;
55684;SDS011;41883;49.544;8.646;2022-07-21T08:50:27;6.32;;;4.60;;
55684;SDS011;41883;49.544;8.646;2022-07-21T08:52:56;4.65;;;4.15;;
55684;SDS011;41883;49.544;8.646;2022-07-21T08:55:21;5.22;;;4.60;;
55684;SDS011;41883;49.544;8.646;2022-07-21T08:57:47;5.90;;;4.90;;
55684;SDS011;41883;49.544;8.646;2022-07-21T09:00:12;5.85;;;4.60;;
55684;SDS011;41883;49.544;8.646;2022-07-21T09:02:38;6.18;;;5.15;;
55684;SDS011;41883;49.544;8.646;2022-07-21T09:05:07;5.10;;;4.10;;
55684;SDS011;41883;49.544;8.646;2022-07-21T09:07:53;6.20;;;4.40;;
55684;SDS011;41883;49.544;8.646;2022-07-21T09:10:25;7.20;;;4.63;;
55684;SDS011;41883;49.544;8.646;2022-07-21T09:12:52;5.60;;;5.00;;
55684;SDS011;41883;49.544;8.646;2022-07-21T09:15:20;5.82;;;4.78;;
55684;SDS011;41883;49.544;8.646;2022-07-21T09:18:02;6.55;;;4.70;;
55684;SDS011;41883;49.544;8.646;2022-07-21T09:20:30;5.60;;;4.22;;
55684;SDS011;41883;49.544;8.646;2022-07-21T09:23:02;7.15;;;4.75;;
55684;SDS011;41883;49.544;8.646;2022-07-21T09:28:15;5.47;;;4.60;;
55684;SDS011;41883;49.544;8.646;2022-07-21T09:30:59;5.40;;;4.35;;
55684;SDS011;41883;49.544;8.646;2022-07-21T09:33:34;5.47;;;4.10;;
55684;SDS011;41883;49.544;8.646;2022-07-21T09:38:39;5.93;;;4.70;;
55684;SDS011;41883;49.544;8.646;2022-07-21T09:41:16;5.50;;;4.20;;
55684;SDS011;41883;49.544;8.646;2022-07-21T09:43:47;5.82;;;4.68;;
55684;SDS011;41883;49.544;8.646;2022-07-21T09:48:39;4.87;;;4.37;;
55684;SDS011;41883;49.544;8.646;2022-07-21T09:56:43;5.20;;;4.60;;
55684;SDS011;41883;49.544;8.646;2022-07-21T09:59:10;5.38;;;4.47;;
55684;SDS011;41883;49.544;8.646;2022-07-21T10:01:37;8.95;;;4.57;;
55684;SDS011;41883;49.544;8.646;2022-07-21T10:04:03;5.70;;;4.05;;
55684;SDS011;41883;49.544;8.646;2022-07-21T10:06:36;6.43;;;3.83;;
55684;SDS011;41883;49.544;8.646;2022-07-21T10:09:04;6.25;;;4.32;;
55684;SDS011;41883;49.544;8.646;2022-07-21T10:11:33;4.75;;;4.10;;
55684;SDS011;41883;49.544;8.646;2022-07-21T10:13:59;5.68;;;3.83;;
55684;SDS011;41883;49.544;8.646;2022-07-21T10:16:25;4.38;;;3.63;;
55684;SDS011;41883;49.544;8.646;2022-07-21T10:24:15;4.80;;;3.22;;
55684;SDS011;41883;49.544;8.646;2022-07-21T10:26:58;4.03;;;3.40;;
55684;SDS011;41883;49.544;8.646;2022-07-21T10:29:48;4.00;;;3.22;;
55684;SDS011;41883;49.544;8.646;2022-07-21T10:32:21;3.40;;;2.65;;
55684;SDS011;41883;49.544;8.646;2022-07-21T10:34:50;4.60;;;3.83;;
55684;SDS011;41883;49.544;8.646;2022-07-21T10:40:03;3.72;;;2.65;;
55684;SDS011;41883;49.544;8.646;2022-07-21T10:42:30;4.43;;;3.35;;
55684;SDS011;41883;49.544;8.646;2022-07-21T10:44:55;5.03;;;3.03;;
55684;SDS011;41883;49.544;8.646;2022-07-21T10:47:21;4.90;;;3.15;;
55684;SDS011;41883;49.544;8.646;2022-07-21T10:49:52;4.32;;;2.78;;
55684;SDS011;41883;49.544;8.646;2022-07-21T10:57:34;3.03;;;2.50;;
55684;SDS011;41883;49.544;8.646;2022-07-21T11:02:55;3.45;;;2.67;;
55684;SDS011;41883;49.544;8.646;2022-07-21T11:05:25;3.40;;;2.63;;
55684;SDS011;41883;49.544;8.646;2022-07-21T11:13:14;4.87;;;3.60;;
55684;SDS011;41883;49.544;8.646;2022-07-21T11:15:44;4.35;;;3.30;;
55684;SDS011;41883;49.544;8.646;2022-07-21T11:18:22;4.20;;;3.40;;
55684;SDS011;41883;49.544;8.646;2022-07-21T11:21:11;3.25;;;2.90;;
55684;SDS011;41883;49.544;8.646;2022-07-21T11:23:39;4.07;;;3.45;;
55684;SDS011;41883;49.544;8.646;2022-07-21T11:26:04;5.70;;;3.78;;
55684;SDS011;41883;49.544;8.646;2022-07-21T11:28:30;3.78;;;2.88;;
55684;SDS011;41883;49.544;8.646;2022-07-21T11:31:15;4.43;;;3.50;;
55684;SDS011;41883;49.544;8.646;2022-07-21T11:33:43;4.38;;;3.10;;
55684;SDS011;41883;49.544;8.646;2022-07-21T11:36:10;4.15;;;3.28;;
55684;SDS011;41883;49.544;8.646;2022-07-21T11:41:23;5.50;;;3.90;;
55684;SDS011;41883;49.544;8.646;2022-07-21T11:43:48;5.47;;;3.87;;
55684;SDS011;41883;49.544;8.646;2022-07-21T11:46:14;4.00;;;3.60;;
55684;SDS011;41883;49.544;8.646;2022-07-21T11:48:39;4.68;;;3.58;;
55684;SDS011;41883;49.544;8.646;2022-07-21T11:51:06;3.53;;;3.22;;
55684;SDS011;41883;49.544;8.646;2022-07-21T11:53:32;4.75;;;3.65;;
55684;SDS011;41883;49.544;8.646;2022-07-21T11:55:58;5.03;;;3.90;;
55684;SDS011;41883;49.544;8.646;2022-07-21T11:58:23;5.18;;;3.97;;
55684;SDS011;41883;49.544;8.646;2022-07-21T12:00:49;5.30;;;3.90;;
55684;SDS011;41883;49.544;8.646;2022-07-21T12:03:31;4.90;;;4.03;;
55684;SDS011;41883;49.544;8.646;2022-07-21T12:05:57;4.82;;;4.22;;
55684;SDS011;41883;49.544;8.646;2022-07-21T12:08:25;4.10;;;3.70;;
55684;SDS011;41883;49.544;8.646;2022-07-21T12:10:50;4.50;;;3.90;;
55684;SDS011;41883;49.544;8.646;2022-07-21T12:13:16;5.15;;;4.20;;
55684;SDS011;41883;49.544;8.646;2022-07-21T12:15:41;6.25;;;4.20;;
55684;SDS011;41883;49.544;8.646;2022-07-21T12:18:27;5.35;;;4.18;;
55684;SDS011;41883;49.544;8.646;2022-07-21T12:21:03;5.78;;;4.10;;
55684;SDS011;41883;49.544;8.646;2022-07-21T12:23:31;6.55;;;4.82;;
55684;SDS011;41883;49.544;8.646;2022-07-21T12:25:58;6.97;;;4.43;;
55684;SDS011;41883;49.544;8.646;2022-07-21T12:28:41;5.65;;;4.20;;
55684;SDS011;41883;49.544;8.646;2022-07-21T12:31:12;5.07;;;4.20;;
55684;SDS011;41883;49.544;8.646;2022-07-21T12:33:39;5.13;;;4.57;;
55684;SDS011;41883;49.544;8.646;2022-07-21T12:36:06;5.70;;;3.85;;
55684;SDS011;41883;49.544;8.646;2022-07-21T12:38:37;4.32;;;3.30;;
55684;SDS011;41883;49.544;8.646;2022-07-21T12:41:11;4.88;;;3.40;;
55684;SDS011;41883;49.544;8.646;2022-07-21T12:43:38;4.30;;;3.60;;
55684;SDS011;41883;49.544;8.646;2022-07-21T12:48:40;4.03;;;3.63;;
55684;SDS011;41883;49.544;8.646;2022-07-21T12:51:10;6.28;;;4.00;;
55684;SDS011;41883;49.544;8.646;2022-07-21T12:56:15;3.92;;;3.53;;
55684;SDS011;41883;49.544;8.646;2022-07-21T13:01:08;4.43;;;4.00;;
55684;SDS011;41883;49.544;8.646;2022-07-21T13:03:34;9.32;;;3.80;;
55684;SDS011;41883;49.544;8.646;2022-07-21T13:06:01;5.35;;;4.07;;
55684;SDS011;41883;49.544;8.646;2022-07-21T13:08:27;4.13;;;3.53;;
55684;SDS011;41883;49.544;8.646;2022-07-21T13:10:53;5.90;;;4.20;;
55684;SDS011;41883;49.544;8.646;2022-07-21T13:13:18;4.95;;;4.25;;
55684;SDS011;41883;49.544;8.646;2022-07-21T13:15:43;5.15;;;4.05;;
55684;SDS011;41883;49.544;8.646;2022-07-21T13:18:09;4.65;;;3.80;;
55684;SDS011;41883;49.544;8.646;2022-07-21T13:20:34;4.90;;;4.20;;
55684;SDS011;41883;49.544;8.646;2022-07-21T13:22:59;3.80;;;3.40;;
55684;SDS011;41883;49.544;8.646;2022-07-21T13:25:25;5.15;;;4.47;;
55684;SDS011;41883;49.544;8.646;2022-07-21T13:27:50;4.50;;;3.90;;
55684;SDS011;41883;49.544;8.646;2022-07-21T13:30:16;4.20;;;3.80;;
55684;SDS011;41883;49.544;8.646;2022-07-21T13:32:42;7.55;;;3.95;;
55684;SDS011;41883;49.544;8.646;2022-07-21T13:35:08;4.68;;;3.53;;
55684;SDS011;41883;49.544;8.646;2022-07-21T13:37:33;5.57;;;3.88;;
55684;SDS011;41883;49.544;8.646;2022-07-21T13:39:59;5.40;;;3.53;;
55684;SDS011;41883;49.544;8.646;2022-07-21T13:42:24;4.85;;;3.55;;
55684;SDS011;41883;49.544;8.646;2022-07-21T13:44:49;6.30;;;4.32;;
55684;SDS011;41883;49.544;8.646;2022-07-21T13:47:15;5.80;;;3.97;;
55684;SDS011;41883;49.544;8.646;2022-07-21T13:49:40;7.07;;;4.18;;
55684;SDS011;41883;49.544;8.646;2022-07-21T13:52:06;5.28;;;3.75;;
55684;SDS011;41883;49.544;8.646;2022-07-21T13:54:32;4.78;;;3.90;;
55684;SDS011;41883;49.544;8.646;2022-07-21T13:56:57;4.53;;;4.10;;
55684;SDS011;41883;49.544;8.646;2022-07-21T13:59:24;4.00;;;3.60;;
55684;SDS011;41883;49.544;8.646;2022-07-21T14:01:50;3.92;;;3.47;;
55684;SDS011;41883;49.544;8.646;2022-07-21T14:04:15;4.53;;;3.72;;
55684;SDS011;41883;49.544;8.646;2022-07-21T14:06:40;4.40;;;3.65;;
55684;SDS011;41883;49.544;8.646;2022-07-21T14:09:06;4.45;;;3.60;;
55684;SDS011;41883;49.544;8.646;2022-07-21T14:11:31;4.70;;;3.70;;
55684;SDS011;41883;49.544;8.646;2022-07-21T14:13:57;4.70;;;3.35;;
55684;SDS011;41883;49.544;8.646;2022-07-21T14:16:22;5.10;;;3.63;;
55684;SDS011;41883;49.544;8.646;2022-07-21T14:18:48;4.03;;;3.45;;
55684;SDS011;41883;49.544;8.646;2022-07-21T14:21:13;4.88;;;3.67;;
55684;SDS011;41883;49.544;8.646;2022-07-21T14:23:38;4.50;;;3.83;;
55684;SDS011;41883;49.544;8.646;2022-07-21T14:26:04;4.70;;;3.50;;
55684;SDS011;41883;49.544;8.646;2022-07-21T14:28:29;4.82;;;3.78;;
55684;SDS011;41883;49.544;8.646;2022-07-21T14:30:54;5.28;;;3.80;;
55684;SDS011;41883;49.544;8.646;2022-07-21T14:33:20;6.15;;;4.03;;
55684;SDS011;41883;49.544;8.646;2022-07-21T14:35:45;6.18;;;4.13;;
55684;SDS011;41883;49.544;8.646;2022-07-21T14:38:11;5.03;;;3.85;;
55684;SDS011;41883;49.544;8.646;2022-07-21T14:40:36;4.40;;;3.47;;
55684;SDS011;41883;49.544;8.646;2022-07-21T14:43:02;5.07;;;3.92;;
55684;SDS011;41883;49.544;8.646;2022-07-21T14:45:28;5.82;;;3.70;;
55684;SDS011;41883;49.544;8.646;2022-07-21T14:47:54;4.80;;;3.63;;
55684;SDS011;41883;49.544;8.646;2022-07-21T14:50:21;4.47;;;3.53;;
55684;SDS011;41883;49.544;8.646;2022-07-21T14:52:48;4.93;;;3.83;;
55684;SDS011;41883;49.544;8.646;2022-07-21T14:55:14;3.95;;;3.47;;
55684;SDS011;41883;49.544;8.646;2022-07-21T14:57:39;4.90;;;3.72;;
55684;SDS011;41883;49.544;8.646;2022-07-21T15:00:06;5.85;;;3.97;;
55684;SDS011;41883;49.544;8.646;2022-07-21T15:02:33;4.25;;;3.60;;
55684;SDS011;41883;49.544;8.646;2022-07-21T15:04:58;4.20;;;3.42;;
55684;SDS011;41883;49.544;8.646;2022-07-21T15:07:24;4.53;;;3.75;;
55684;SDS011;41883;49.544;8.646;2022-07-21T15:09:49;4.70;;;3.80;;
55684;SDS011;41883;49.544;8.646;2022-07-21T15:12:14;4.53;;;3.78;;
55684;SDS011;41883;49.544;8.646;2022-07-21T15:14:40;6.32;;;4.18;;
55684;SDS011;41883;49.544;8.646;2022-07-21T15:17:05;5.35;;;3.65;;
55684;SDS011;41883;49.544;8.646;2022-07-21T15:19:31;5.07;;;3.85;;
55684;SDS011;41883;49.544;8.646;2022-07-21T15:21:56;4.03;;;3.30;;
55684;SDS011;41883;49.544;8.646;2022-07-21T15:24:22;5.43;;;3.67;;